sensor_id;sensor_type;location;lat;lon;timestamp;pressure;altitude;pressure_sealevel;temperature;humidity
1832;BME280;1680;48.106;11.708;2023-02-10T00:01:04;97161.75;;;-2.82;96.34
1832;BME280;1680;48.106;11.708;2023-02-10T00:03:33;97170.28;;;-2.81;96.01
1832;BME280;1680;48.106;11.708;2023-02-10T00:06:01;97173.03;;;-2.84;95.73
1832;BME280;1680;48.106;11.708;2023-02-10T00:08:30;97178.97;;;-2.84;95.93
1832;BME280;1680;48.106;11.708;2023-02-10T00:10:58;97178.47;;;-2.88;96.17
1832;BME280;1680;48.106;11.708;2023-02-10T00:13:26;97190.47;;;-2.89;95.66
1832;BME280;1680;48.106;11.708;2023-02-10T00:15:54;97182.97;;;-2.92;95.17
1832;BME280;1680;48.106;11.708;2023-02-10T00:18:24;97142.94;;;-3.19;94.81
1832;BME280;1680;48.106;11.708;2023-02-10T00:20:51;97204.84;;;-2.99;95.13
1832;BME280;1680;48.106;11.708;2023-02-10T00:23:18;97195.50;;;-3.00;94.86
1832;BME280;1680;48.106;11.708;2023-02-10T00:25:47;97198.38;;;-2.92;94.43
1832;BME280;1680;48.106;11.708;2023-02-10T00:28:15;97197.63;;;-3.06;94.67
1832;BME280;1680;48.106;11.708;2023-02-10T00:30:42;97205.53;;;-3.09;94.93
1832;BME280;1680;48.106;11.708;2023-02-10T00:33:09;97199.34;;;-3.07;94.74
1832;BME280;1680;48.106;11.708;2023-02-10T00:35:37;97207.16;;;-3.08;94.69
1832;BME280;1680;48.106;11.708;2023-02-10T00:38:04;97207.38;;;-3.11;94.79
1832;BME280;1680;48.106;11.708;2023-02-10T00:40:31;97213.63;;;-3.15;95.15
1832;BME280;1680;48.106;11.708;2023-02-10T00:43:00;97224.69;;;-3.15;95.42
1832;BME280;1680;48.106;11.708;2023-02-10T00:45:27;97220.50;;;-3.16;94.83
1832;BME280;1680;48.106;11.708;2023-02-10T00:47:55;97227.47;;;-3.18;95.34
1832;BME280;1680;48.106;11.708;2023-02-10T00:50:22;97220.88;;;-3.22;95.02
1832;BME280;1680;48.106;11.708;2023-02-10T00:52:49;97228.00;;;-3.13;95.27
1832;BME280;1680;48.106;11.708;2023-02-10T00:55:17;97235.25;;;-3.19;95.50
1832;BME280;1680;48.106;11.708;2023-02-10T00:57:44;97227.47;;;-3.18;95.30
1832;BME280;1680;48.106;11.708;2023-02-10T01:00:14;97241.38;;;-3.22;95.18
1832;BME280;1680;48.106;11.708;2023-02-10T01:02:42;97234.22;;;-3.17;94.81
1832;BME280;1680;48.106;11.708;2023-02-10T01:05:09;97230.88;;;-3.17;94.98
1832;BME280;1680;48.106;11.708;2023-02-10T01:07:36;97230.81;;;-3.30;94.74
1832;BME280;1680;48.106;11.708;2023-02-10T01:10:04;97225.56;;;-3.28;95.38
1832;BME280;1680;48.106;11.708;2023-02-10T01:12:32;97234.09;;;-3.28;95.68
1832;BME280;1680;48.106;11.708;2023-02-10T01:14:59;97186.88;;;-3.64;95.21
1832;BME280;1680;48.106;11.708;2023-02-10T01:17:28;97231.53;;;-3.28;95.32
1832;BME280;1680;48.106;11.708;2023-02-10T01:19:55;97239.31;;;-3.29;95.69
1832;BME280;1680;48.106;11.708;2023-02-10T01:22:23;97231.72;;;-3.31;95.37
1832;BME280;1680;48.106;11.708;2023-02-10T01:24:50;97240.56;;;-3.22;94.82
1832;BME280;1680;48.106;11.708;2023-02-10T01:27:18;97242.81;;;-3.30;94.88
1832;BME280;1680;48.106;11.708;2023-02-10T01:29:45;97244.72;;;-3.34;95.53
1832;BME280;1680;48.106;11.708;2023-02-10T01:32:13;97251.44;;;-3.31;95.23
1832;BME280;1680;48.106;11.708;2023-02-10T01:34:42;97249.56;;;-3.29;95.36
1832;BME280;1680;48.106;11.708;2023-02-10T01:37:09;97251.50;;;-3.33;95.69
1832;BME280;1680;48.106;11.708;2023-02-10T01:39:37;97255.72;;;-3.32;95.76
1832;BME280;1680;48.106;11.708;2023-02-10T01:42:04;97253.16;;;-3.32;95.63
1832;BME280;1680;48.106;11.708;2023-02-10T01:47:40;97253.16;;;-3.32;95.60
1832;BME280;1680;48.106;11.708;2023-02-10T01:50:09;97255.09;;;-3.35;96.12
1832;BME280;1680;48.106;11.708;2023-02-10T01:52:38;97255.00;;;-3.34;95.90
1832;BME280;1680;48.106;11.708;2023-02-10T01:55:09;97204.91;;;-3.66;95.88
1832;BME280;1680;48.106;11.708;2023-02-10T01:57:39;97212.22;;;-3.60;96.09
1832;BME280;1680;48.106;11.708;2023-02-10T02:00:07;97255.72;;;-3.32;96.01
1832;BME280;1680;48.106;11.708;2023-02-10T02:02:35;97247.94;;;-3.30;96.25
1832;BME280;1680;48.106;11.708;2023-02-10T02:05:05;97262.31;;;-3.28;95.95
1832;BME280;1680;48.106;11.708;2023-02-10T02:07:36;97265.91;;;-3.30;96.11
1832;BME280;1680;48.106;11.708;2023-02-10T02:10:05;97270.19;;;-3.31;95.65
1832;BME280;1680;48.106;11.708;2023-02-10T02:12:41;97268.25;;;-3.27;95.56
1832;BME280;1680;48.106;11.708;2023-02-10T02:15:16;97267.03;;;-3.22;95.57
1832;BME280;1680;48.106;11.708;2023-02-10T02:17:51;97272.16;;;-3.22;95.09
1832;BME280;1680;48.106;11.708;2023-02-10T02:20:38;97276.84;;;-3.28;95.27
1832;BME280;1680;48.106;11.708;2023-02-10T02:23:26;97277.16;;;-3.33;95.65
1832;BME280;1680;48.106;11.708;2023-02-10T02:26:14;97270.56;;;-3.37;95.65
1832;BME280;1680;48.106;11.708;2023-02-10T02:28:57;97280.66;;;-3.48;95.82
1832;BME280;1680;48.106;11.708;2023-02-10T02:31:42;97275.72;;;-3.51;95.84
1832;BME280;1680;48.106;11.708;2023-02-10T02:34:15;97282.13;;;-3.44;96.18
1832;BME280;1680;48.106;11.708;2023-02-10T02:36:48;97274.56;;;-3.45;95.91
1832;BME280;1680;48.106;11.708;2023-02-10T02:39:17;97285.81;;;-3.48;96.05
1832;BME280;1680;48.106;11.708;2023-02-10T02:41:44;97282.31;;;-3.47;95.77
1832;BME280;1680;48.106;11.708;2023-02-10T02:44:11;97278.94;;;-3.47;96.05
1832;BME280;1680;48.106;11.708;2023-02-10T02:46:48;97282.50;;;-3.50;95.72
1832;BME280;1680;48.106;11.708;2023-02-10T02:49:26;97284.16;;;-3.49;95.47
1832;BME280;1680;48.106;11.708;2023-02-10T02:52:00;97288.66;;;-3.52;95.24
1832;BME280;1680;48.106;11.708;2023-02-10T02:54:34;97295.31;;;-3.50;95.17
1832;BME280;1680;48.106;11.708;2023-02-10T02:57:10;97296.25;;;-3.51;94.72
1832;BME280;1680;48.106;11.708;2023-02-10T02:59:41;97226.78;;;-4.00;95.46
1832;BME280;1680;48.106;11.708;2023-02-10T03:02:14;97292.78;;;-3.64;95.83
1832;BME280;1680;48.106;11.708;2023-02-10T03:04:45;97288.78;;;-3.68;95.69
1832;BME280;1680;48.106;11.708;2023-02-10T03:07:14;97286.00;;;-3.65;95.98
1832;BME280;1680;48.106;11.708;2023-02-10T03:09:42;97285.28;;;-3.67;96.35
1832;BME280;1680;48.106;11.708;2023-02-10T03:12:10;97289.47;;;-3.66;95.80
1832;BME280;1680;48.106;11.708;2023-02-10T03:14:37;97290.22;;;-3.64;95.88
1832;BME280;1680;48.106;11.708;2023-02-10T03:17:05;97292.88;;;-3.65;95.88
1832;BME280;1680;48.106;11.708;2023-02-10T03:19:34;97296.47;;;-3.68;95.99
1832;BME280;1680;48.106;11.708;2023-02-10T03:22:01;97280.53;;;-3.73;96.03
1832;BME280;1680;48.106;11.708;2023-02-10T03:24:29;97284.03;;;-3.74;96.21
1832;BME280;1680;48.106;11.708;2023-02-10T03:26:56;97287.50;;;-3.75;96.59
1832;BME280;1680;48.106;11.708;2023-02-10T03:29:24;97279.06;;;-3.77;96.25
1832;BME280;1680;48.106;11.708;2023-02-10T03:31:51;97281.63;;;-3.77;96.17
1832;BME280;1680;48.106;11.708;2023-02-10T03:34:19;97283.47;;;-3.79;96.43
1832;BME280;1680;48.106;11.708;2023-02-10T03:36:47;97283.66;;;-3.82;96.74
1832;BME280;1680;48.106;11.708;2023-02-10T03:39:15;97282.50;;;-3.90;96.78
1832;BME280;1680;48.106;11.708;2023-02-10T03:41:42;97290.06;;;-3.88;96.22
1832;BME280;1680;48.106;11.708;2023-02-10T03:44:09;97300.31;;;-3.88;96.45
1832;BME280;1680;48.106;11.708;2023-02-10T03:46:37;97288.78;;;-3.95;96.82
1832;BME280;1680;48.106;11.708;2023-02-10T03:49:05;97301.22;;;-3.89;96.31
1832;BME280;1680;48.106;11.708;2023-02-10T03:51:32;97300.50;;;-3.91;96.64
1832;BME280;1680;48.106;11.708;2023-02-10T03:54:01;97295.75;;;-3.97;96.27
1832;BME280;1680;48.106;11.708;2023-02-10T03:56:28;97304.72;;;-3.90;96.35
1832;BME280;1680;48.106;11.708;2023-02-10T03:58:55;97299.13;;;-3.97;96.37
1832;BME280;1680;48.106;11.708;2023-02-10T04:01:23;97308.34;;;-3.94;96.67
1832;BME280;1680;48.106;11.708;2023-02-10T04:03:50;97303.63;;;-4.00;96.52
1832;BME280;1680;48.106;11.708;2023-02-10T04:06:17;97313.13;;;-4.02;96.56
1832;BME280;1680;48.106;11.708;2023-02-10T04:08:46;97304.72;;;-4.04;96.61
1832;BME280;1680;48.106;11.708;2023-02-10T04:11:15;97308.00;;;-4.02;96.44
1832;BME280;1680;48.106;11.708;2023-02-10T04:13:42;97304.34;;;-4.12;96.36
1832;BME280;1680;48.106;11.708;2023-02-10T04:16:11;97314.59;;;-4.12;96.25
1832;BME280;1680;48.106;11.708;2023-02-10T04:18:39;97254.91;;;-4.56;96.39
1832;BME280;1680;48.106;11.708;2023-02-10T04:21:08;97306.25;;;-4.16;96.69
1832;BME280;1680;48.106;11.708;2023-02-10T04:23:36;97303.25;;;-4.08;96.42
1832;BME280;1680;48.106;11.708;2023-02-10T04:26:04;97309.66;;;-4.15;97.22
1832;BME280;1680;48.106;11.708;2023-02-10T04:28:33;97305.44;;;-4.16;96.53
1832;BME280;1680;48.106;11.708;2023-02-10T04:31:00;97303.97;;;-4.20;96.74
1832;BME280;1680;48.106;11.708;2023-02-10T04:33:28;97245.94;;;-4.63;96.30
1832;BME280;1680;48.106;11.708;2023-02-10T04:35:56;97318.97;;;-4.28;97.32
1832;BME280;1680;48.106;11.708;2023-02-10T04:38:24;97312.94;;;-4.27;97.96
1832;BME280;1680;48.106;11.708;2023-02-10T04:40:51;97312.56;;;-4.21;97.95
1832;BME280;1680;48.106;11.708;2023-02-10T04:43:18;97315.31;;;-4.10;97.80
1832;BME280;1680;48.106;11.708;2023-02-10T04:45:47;97319.28;;;-4.05;97.46
1832;BME280;1680;48.106;11.708;2023-02-10T04:48:15;97319.44;;;-4.08;97.13
1832;BME280;1680;48.106;11.708;2023-02-10T04:50:42;97263.31;;;-4.54;97.15
1832;BME280;1680;48.106;11.708;2023-02-10T04:53:10;97336.91;;;-4.14;97.16
1832;BME280;1680;48.106;11.708;2023-02-10T04:55:37;97323.25;;;-4.15;96.99
1832;BME280;1680;48.106;11.708;2023-02-10T04:58:05;97316.59;;;-4.17;96.83
1832;BME280;1680;48.106;11.708;2023-02-10T05:00:32;97335.34;;;-4.17;97.32
1832;BME280;1680;48.106;11.708;2023-02-10T05:03:01;97315.84;;;-4.19;97.09
1832;BME280;1680;48.106;11.708;2023-02-10T05:05:29;97329.75;;;-4.23;96.93
1832;BME280;1680;48.106;11.708;2023-02-10T05:07:56;97324.56;;;-4.22;96.78
1832;BME280;1680;48.106;11.708;2023-02-10T05:10:23;97327.28;;;-4.25;96.33
1832;BME280;1680;48.106;11.708;2023-02-10T05:12:51;97326.44;;;-4.25;95.93
1832;BME280;1680;48.106;11.708;2023-02-10T05:15:18;97331.94;;;-4.31;96.30
1832;BME280;1680;48.106;11.708;2023-02-10T05:17:46;97314.81;;;-4.45;96.53
1832;BME280;1680;48.106;11.708;2023-02-10T05:20:14;97336.31;;;-4.33;96.74
1832;BME280;1680;48.106;11.708;2023-02-10T05:22:42;97340.69;;;-4.35;96.50
1832;BME280;1680;48.106;11.708;2023-02-10T05:25:09;97345.91;;;-4.37;96.25
1832;BME280;1680;48.106;11.708;2023-02-10T05:27:37;97346.16;;;-4.41;96.18
1832;BME280;1680;48.106;11.708;2023-02-10T05:30:06;97353.13;;;-4.43;96.04
1832;BME280;1680;48.106;11.708;2023-02-10T05:32:34;97357.41;;;-4.44;96.06
1832;BME280;1680;48.106;11.708;2023-02-10T05:35:02;97370.56;;;-4.50;96.23
1832;BME280;1680;48.106;11.708;2023-02-10T05:37:30;97365.53;;;-4.51;95.77
1832;BME280;1680;48.106;11.708;2023-02-10T05:39:58;97368.94;;;-4.51;95.99
1832;BME280;1680;48.106;11.708;2023-02-10T05:42:25;97374.13;;;-4.52;95.84
1832;BME280;1680;48.106;11.708;2023-02-10T05:44:52;97374.28;;;-4.55;95.56
1832;BME280;1680;48.106;11.708;2023-02-10T05:47:20;97372.81;;;-4.59;96.02
1832;BME280;1680;48.106;11.708;2023-02-10T05:49:47;97373.81;;;-4.62;96.50
1832;BME280;1680;48.106;11.708;2023-02-10T05:52:14;97358.50;;;-4.77;96.33
1832;BME280;1680;48.106;11.708;2023-02-10T05:54:43;97385.69;;;-4.61;96.23
1832;BME280;1680;48.106;11.708;2023-02-10T05:57:10;97314.16;;;-5.07;95.97
1832;BME280;1680;48.106;11.708;2023-02-10T05:59:37;97387.59;;;-4.64;96.42
1832;BME280;1680;48.106;11.708;2023-02-10T06:02:05;97383.56;;;-4.68;96.27
1832;BME280;1680;48.106;11.708;2023-02-10T06:04:32;97353.22;;;-4.89;96.13
1832;BME280;1680;48.106;11.708;2023-02-10T06:06:59;97391.72;;;-4.62;96.15
1832;BME280;1680;48.106;11.708;2023-02-10T06:09:27;97392.88;;;-4.67;96.61
1832;BME280;1680;48.106;11.708;2023-02-10T06:11:56;97397.34;;;-4.71;96.73
1832;BME280;1680;48.106;11.708;2023-02-10T06:14:23;97405.94;;;-4.72;96.64
1832;BME280;1680;48.106;11.708;2023-02-10T06:16:50;97326.88;;;-5.21;96.50
1832;BME280;1680;48.106;11.708;2023-02-10T06:19:18;97404.53;;;-4.77;96.33
1832;BME280;1680;48.106;11.708;2023-02-10T06:21:45;97407.16;;;-4.63;100.00
1832;BME280;1680;48.106;11.708;2023-02-10T06:24:12;97408.13;;;-4.50;99.34
1832;BME280;1680;48.106;11.708;2023-02-10T06:26:40;97423.16;;;-4.60;97.08
1832;BME280;1680;48.106;11.708;2023-02-10T06:29:08;97415.59;;;-4.61;96.45
1832;BME280;1680;48.106;11.708;2023-02-10T06:31:36;97413.09;;;-4.63;96.63
1832;BME280;1680;48.106;11.708;2023-02-10T06:34:03;97415.59;;;-4.61;96.19
1832;BME280;1680;48.106;11.708;2023-02-10T06:36:32;97416.13;;;-4.56;95.85
1832;BME280;1680;48.106;11.708;2023-02-10T06:39:00;97410.78;;;-4.67;96.01
1832;BME280;1680;48.106;11.708;2023-02-10T06:41:27;97420.22;;;-4.68;96.03
1832;BME280;1680;48.106;11.708;2023-02-10T06:43:54;97415.09;;;-4.68;96.20
1832;BME280;1680;48.106;11.708;2023-02-10T06:46:23;97415.38;;;-4.72;96.16
1832;BME280;1680;48.106;11.708;2023-02-10T06:48:50;97426.25;;;-4.69;95.90
1832;BME280;1680;48.106;11.708;2023-02-10T06:51:17;97432.19;;;-4.68;96.43
1832;BME280;1680;48.106;11.708;2023-02-10T06:53:45;97433.19;;;-4.71;95.69
1832;BME280;1680;48.106;11.708;2023-02-10T06:56:12;97439.03;;;-4.69;96.23
1832;BME280;1680;48.106;11.708;2023-02-10T06:58:40;97446.53;;;-4.50;99.84
1832;BME280;1680;48.106;11.708;2023-02-10T07:01:07;97443.97;;;-4.50;98.00
1832;BME280;1680;48.106;11.708;2023-02-10T07:03:36;97451.31;;;-4.44;97.17
1832;BME280;1680;48.106;11.708;2023-02-10T07:06:04;97454.63;;;-4.42;97.13
1832;BME280;1680;48.106;11.708;2023-02-10T07:08:32;97448.22;;;-4.35;96.84
1832;BME280;1680;48.106;11.708;2023-02-10T07:10:59;97457.41;;;-4.31;97.27
1832;BME280;1680;48.106;11.708;2023-02-10T07:13:27;97452.00;;;-4.27;96.96
1832;BME280;1680;48.106;11.708;2023-02-10T07:15:54;97459.59;;;-4.25;96.84
1832;BME280;1680;48.106;11.708;2023-02-10T07:18:21;97456.88;;;-4.22;97.17
1832;BME280;1680;48.106;11.708;2023-02-10T07:20:50;97457.28;;;-4.14;97.79
1832;BME280;1680;48.106;11.708;2023-02-10T07:23:17;97461.06;;;-4.06;97.37
1832;BME280;1680;48.106;11.708;2023-02-10T07:25:45;97450.16;;;-3.66;100.00
1832;BME280;1680;48.106;11.708;2023-02-10T07:28:12;97459.56;;;-3.67;99.05
1832;BME280;1680;48.106;11.708;2023-02-10T07:30:39;97459.78;;;-3.70;97.98
1832;BME280;1680;48.106;11.708;2023-02-10T07:33:07;97458.94;;;-3.56;98.74
1832;BME280;1680;48.106;11.708;2023-02-10T07:35:34;97467.31;;;-3.53;97.35
1832;BME280;1680;48.106;11.708;2023-02-10T07:38:03;97468.00;;;-3.51;96.86
1832;BME280;1680;48.106;11.708;2023-02-10T07:40:30;97468.22;;;-3.40;96.93
1832;BME280;1680;48.106;11.708;2023-02-10T07:42:58;97460.88;;;-3.32;97.06
1832;BME280;1680;48.106;11.708;2023-02-10T07:45:25;97475.00;;;-3.25;96.89
1832;BME280;1680;48.106;11.708;2023-02-10T07:47:56;97466.47;;;-3.25;97.17
1832;BME280;1680;48.106;11.708;2023-02-10T07:50:24;97478.66;;;-3.15;97.15
1832;BME280;1680;48.106;11.708;2023-02-10T07:52:52;97476.66;;;-3.10;96.80
1832;BME280;1680;48.106;11.708;2023-02-10T07:55:21;97484.34;;;-2.96;96.63
1832;BME280;1680;48.106;11.708;2023-02-10T07:57:48;97489.91;;;-2.89;96.36
1832;BME280;1680;48.106;11.708;2023-02-10T08:00:15;97486.94;;;-2.70;96.22
1832;BME280;1680;48.106;11.708;2023-02-10T08:02:43;97488.13;;;-2.61;95.57
1832;BME280;1680;48.106;11.708;2023-02-10T08:05:10;97486.66;;;-2.51;95.73
1832;BME280;1680;48.106;11.708;2023-02-10T08:07:37;97482.56;;;-2.41;95.52
1832;BME280;1680;48.106;11.708;2023-02-10T08:10:05;97490.72;;;-2.35;95.90
1832;BME280;1680;48.106;11.708;2023-02-10T08:12:34;97491.16;;;-2.28;95.61
1832;BME280;1680;48.106;11.708;2023-02-10T08:15:01;97430.66;;;-2.46;95.29
1832;BME280;1680;48.106;11.708;2023-02-10T08:17:29;97489.94;;;-1.96;95.05
1832;BME280;1680;48.106;11.708;2023-02-10T08:19:56;97497.75;;;-1.86;94.63
1832;BME280;1680;48.106;11.708;2023-02-10T08:22:23;97429.06;;;-2.08;93.70
1832;BME280;1680;48.106;11.708;2023-02-10T08:24:51;97494.72;;;-1.66;93.65
1832;BME280;1680;48.106;11.708;2023-02-10T08:27:18;97490.03;;;-1.47;93.18
1832;BME280;1680;48.106;11.708;2023-02-10T08:29:46;97494.66;;;-1.27;91.68
1832;BME280;1680;48.106;11.708;2023-02-10T08:32:14;97441.44;;;-1.64;91.19
1832;BME280;1680;48.106;11.708;2023-02-10T08:34:44;97489.00;;;-1.07;91.06
1832;BME280;1680;48.106;11.708;2023-02-10T08:37:12;97492.09;;;-1.02;90.73
1832;BME280;1680;48.106;11.708;2023-02-10T08:39:40;97499.38;;;-0.96;91.00
1832;BME280;1680;48.106;11.708;2023-02-10T08:42:07;97486.09;;;-0.90;90.55
1832;BME280;1680;48.106;11.708;2023-02-10T08:44:35;97490.31;;;-0.77;90.24
1832;BME280;1680;48.106;11.708;2023-02-10T08:47:04;97502.53;;;-0.55;89.63
1832;BME280;1680;48.106;11.708;2023-02-10T08:49:32;97492.06;;;-0.41;88.09
1832;BME280;1680;48.106;11.708;2023-02-10T08:51:59;97495.97;;;-0.36;88.10
1832;BME280;1680;48.106;11.708;2023-02-10T08:54:26;97494.38;;;-0.26;88.55
1832;BME280;1680;48.106;11.708;2023-02-10T08:56:54;97493.88;;;-0.07;87.38
1832;BME280;1680;48.106;11.708;2023-02-10T08:59:21;97486.66;;;-0.03;86.70
1832;BME280;1680;48.106;11.708;2023-02-10T09:01:49;97496.06;;;0.09;86.02
1832;BME280;1680;48.106;11.708;2023-02-10T09:04:19;97492.94;;;0.17;85.61
1832;BME280;1680;48.106;11.708;2023-02-10T09:06:47;97441.72;;;-0.11;85.38
1832;BME280;1680;48.106;11.708;2023-02-10T09:09:15;97493.84;;;0.39;84.60
1832;BME280;1680;48.106;11.708;2023-02-10T09:11:45;97503.47;;;0.72;82.30
1832;BME280;1680;48.106;11.708;2023-02-10T09:14:13;97501.94;;;0.80;81.22
1832;BME280;1680;48.106;11.708;2023-02-10T09:16:41;97515.59;;;0.93;79.99
1832;BME280;1680;48.106;11.708;2023-02-10T09:19:08;97499.38;;;0.91;80.33
1832;BME280;1680;48.106;11.708;2023-02-10T09:21:37;97502.75;;;0.92;80.50
1832;BME280;1680;48.106;11.708;2023-02-10T09:24:05;97498.44;;;1.14;78.89
1832;BME280;1680;48.106;11.708;2023-02-10T09:26:32;97493.53;;;1.11;79.82
1832;BME280;1680;48.106;11.708;2023-02-10T09:29:00;97497.75;;;1.23;78.96
1832;BME280;1680;48.106;11.708;2023-02-10T09:31:28;97500.34;;;1.23;79.56
1832;BME280;1680;48.106;11.708;2023-02-10T09:33:55;97504.78;;;1.43;78.41
1832;BME280;1680;48.106;11.708;2023-02-10T09:36:23;97497.47;;;1.59;77.41
1832;BME280;1680;48.106;11.708;2023-02-10T09:38:51;97500.31;;;1.56;78.13
1832;BME280;1680;48.106;11.708;2023-02-10T09:41:31;97509.91;;;1.76;77.51
1832;BME280;1680;48.106;11.708;2023-02-10T09:44:11;97508.50;;;1.83;77.00
1832;BME280;1680;48.106;11.708;2023-02-10T09:46:52;97514.59;;;1.92;76.71
1832;BME280;1680;48.106;11.708;2023-02-10T09:49:36;97511.19;;;1.92;77.48
1832;BME280;1680;48.106;11.708;2023-02-10T09:52:15;97509.94;;;2.18;75.64
1832;BME280;1680;48.106;11.708;2023-02-10T09:54:49;97512.28;;;2.21;76.24
1832;BME280;1680;48.106;11.708;2023-02-10T09:57:19;97514.03;;;2.20;75.50
1832;BME280;1680;48.106;11.708;2023-02-10T09:59:50;97513.25;;;2.40;74.59
1832;BME280;1680;48.106;11.708;2023-02-10T10:02:24;97509.59;;;2.43;75.68
1832;BME280;1680;48.106;11.708;2023-02-10T10:04:55;97505.31;;;2.53;74.67
1832;BME280;1680;48.106;11.708;2023-02-10T10:07:26;97512.06;;;2.65;73.62
1832;BME280;1680;48.106;11.708;2023-02-10T10:10:02;97511.31;;;2.53;73.72
1832;BME280;1680;48.106;11.708;2023-02-10T10:12:31;97510.81;;;2.59;74.45
1832;BME280;1680;48.106;11.708;2023-02-10T10:14:58;97500.22;;;2.62;73.72
1832;BME280;1680;48.106;11.708;2023-02-10T10:17:36;97502.91;;;2.81;73.45
1832;BME280;1680;48.106;11.708;2023-02-10T10:20:32;97508.22;;;2.80;73.87
1832;BME280;1680;48.106;11.708;2023-02-10T10:23:17;97506.13;;;2.94;72.69
1832;BME280;1680;48.106;11.708;2023-02-10T10:25:57;97506.81;;;2.96;72.51
1832;BME280;1680;48.106;11.708;2023-02-10T10:28:36;97496.75;;;3.02;72.21
1832;BME280;1680;48.106;11.708;2023-02-10T10:31:12;97498.22;;;3.16;71.34
1832;BME280;1680;48.106;11.708;2023-02-10T10:33:43;97493.63;;;3.29;70.83
1832;BME280;1680;48.106;11.708;2023-02-10T10:36:14;97483.69;;;3.34;71.24
1832;BME280;1680;48.106;11.708;2023-02-10T10:38:47;97482.56;;;3.27;71.58
1832;BME280;1680;48.106;11.708;2023-02-10T10:41:17;97431.72;;;3.05;70.16
1832;BME280;1680;48.106;11.708;2023-02-10T10:43:46;97482.31;;;3.30;71.31
1832;BME280;1680;48.106;11.708;2023-02-10T10:46:18;97481.44;;;3.50;70.60
1832;BME280;1680;48.106;11.708;2023-02-10T10:48:48;97483.19;;;3.49;71.42
1832;BME280;1680;48.106;11.708;2023-02-10T10:51:16;97482.72;;;3.65;71.05
1832;BME280;1680;48.106;11.708;2023-02-10T10:53:46;97466.84;;;3.68;70.42
1832;BME280;1680;48.106;11.708;2023-02-10T10:56:26;97417.34;;;3.31;69.76
1832;BME280;1680;48.106;11.708;2023-02-10T10:58:57;97462.25;;;3.71;69.98
1832;BME280;1680;48.106;11.708;2023-02-10T11:01:34;97468.00;;;3.84;69.49
1832;BME280;1680;48.106;11.708;2023-02-10T11:04:03;97453.09;;;3.77;68.83
1832;BME280;1680;48.106;11.708;2023-02-10T11:06:34;97458.13;;;3.69;69.51
1832;BME280;1680;48.106;11.708;2023-02-10T11:09:06;97446.41;;;3.74;68.19
1832;BME280;1680;48.106;11.708;2023-02-10T11:11:37;97440.38;;;3.74;69.34
1832;BME280;1680;48.106;11.708;2023-02-10T11:14:14;97439.88;;;3.89;68.28
1832;BME280;1680;48.106;11.708;2023-02-10T11:16:44;97439.59;;;4.01;67.30
1832;BME280;1680;48.106;11.708;2023-02-10T11:19:18;97426.34;;;4.14;67.93
1832;BME280;1680;48.106;11.708;2023-02-10T11:21:46;97416.09;;;4.12;67.31
1832;BME280;1680;48.106;11.708;2023-02-10T11:24:18;97422.94;;;4.23;67.36
1832;BME280;1680;48.106;11.708;2023-02-10T11:26:59;97419.91;;;4.27;66.56
1832;BME280;1680;48.106;11.708;2023-02-10T11:29:28;97419.91;;;4.37;66.55
1832;BME280;1680;48.106;11.708;2023-02-10T11:31:56;97415.81;;;4.34;67.04
1832;BME280;1680;48.106;11.708;2023-02-10T11:34:27;97407.59;;;4.58;65.16
1832;BME280;1680;48.106;11.708;2023-02-10T11:36:56;97407.19;;;4.43;65.87
1832;BME280;1680;48.106;11.708;2023-02-10T11:39:28;97403.25;;;4.39;66.08
1832;BME280;1680;48.106;11.708;2023-02-10T11:42:07;97310.94;;;3.89;65.40
1832;BME280;1680;48.106;11.708;2023-02-10T11:44:35;97401.00;;;4.63;65.26
1832;BME280;1680;48.106;11.708;2023-02-10T11:47:03;97390.09;;;4.50;64.91
1832;BME280;1680;48.106;11.708;2023-02-10T11:49:34;97392.56;;;4.42;66.43
1832;BME280;1680;48.106;11.708;2023-02-10T11:52:02;97391.84;;;4.59;65.29
1832;BME280;1680;48.106;11.708;2023-02-10T11:54:30;97392.84;;;4.49;66.64
1832;BME280;1680;48.106;11.708;2023-02-10T11:57:24;97396.66;;;4.54;65.09
1832;BME280;1680;48.106;11.708;2023-02-10T12:00:16;97390.56;;;4.82;64.51
1832;BME280;1680;48.106;11.708;2023-02-10T12:03:13;97389.28;;;4.95;64.79
1832;BME280;1680;48.106;11.708;2023-02-10T12:05:49;97378.47;;;5.00;63.35
1832;BME280;1680;48.106;11.708;2023-02-10T12:08:23;97282.13;;;4.38;63.39
1832;BME280;1680;48.106;11.708;2023-02-10T12:10:57;97373.41;;;5.25;62.07
1832;BME280;1680;48.106;11.708;2023-02-10T12:13:32;97378.72;;;5.06;61.72
1832;BME280;1680;48.106;11.708;2023-02-10T12:16:12;97376.00;;;4.98;61.46
1832;BME280;1680;48.106;11.708;2023-02-10T12:18:55;97383.63;;;5.09;61.61
1832;BME280;1680;48.106;11.708;2023-02-10T12:24:28;97375.00;;;5.36;59.56
1832;BME280;1680;48.106;11.708;2023-02-10T12:27:01;97382.44;;;5.31;58.58
1832;BME280;1680;48.106;11.708;2023-02-10T12:29:43;97372.16;;;5.02;59.46
1832;BME280;1680;48.106;11.708;2023-02-10T12:32:22;97371.88;;;5.05;59.21
1832;BME280;1680;48.106;11.708;2023-02-10T12:35:04;97370.38;;;5.30;57.34
1832;BME280;1680;48.106;11.708;2023-02-10T12:37:44;97365.50;;;5.17;58.85
1832;BME280;1680;48.106;11.708;2023-02-10T12:40:24;97369.31;;;5.23;58.15
1832;BME280;1680;48.106;11.708;2023-02-10T12:43:00;97369.09;;;5.34;58.23
1832;BME280;1680;48.106;11.708;2023-02-10T12:45:41;97364.88;;;5.33;58.60
1832;BME280;1680;48.106;11.708;2023-02-10T12:48:21;97361.50;;;5.23;59.13
1832;BME280;1680;48.106;11.708;2023-02-10T12:51:06;97362.47;;;5.22;59.16
1832;BME280;1680;48.106;11.708;2023-02-10T12:53:38;97357.16;;;5.41;58.20
1832;BME280;1680;48.106;11.708;2023-02-10T12:56:11;97359.16;;;5.29;59.01
1832;BME280;1680;48.106;11.708;2023-02-10T12:58:44;97357.84;;;5.43;59.22
1832;BME280;1680;48.106;11.708;2023-02-10T13:01:19;97359.56;;;5.52;57.74
1832;BME280;1680;48.106;11.708;2023-02-10T13:03:51;97309.66;;;4.94;58.98
1832;BME280;1680;48.106;11.708;2023-02-10T13:06:26;97348.88;;;5.55;61.25
1832;BME280;1680;48.106;11.708;2023-02-10T13:09:00;97349.41;;;5.75;58.31
1832;BME280;1680;48.106;11.708;2023-02-10T13:11:34;97343.97;;;5.69;58.96
1832;BME280;1680;48.106;11.708;2023-02-10T13:14:05;97340.47;;;5.61;58.91
1832;BME280;1680;48.106;11.708;2023-02-10T13:16:38;97343.66;;;5.55;59.43
1832;BME280;1680;48.106;11.708;2023-02-10T13:19:12;97339.41;;;5.54;59.60
1832;BME280;1680;48.106;11.708;2023-02-10T13:21:48;97332.25;;;5.82;57.79
1832;BME280;1680;48.106;11.708;2023-02-10T13:24:19;97280.16;;;5.48;58.69
1832;BME280;1680;48.106;11.708;2023-02-10T13:26:56;97344.41;;;5.65;58.40
1832;BME280;1680;48.106;11.708;2023-02-10T13:29:36;97328.28;;;5.61;57.99
1832;BME280;1680;48.106;11.708;2023-02-10T13:32:38;97328.38;;;5.86;54.47
1832;BME280;1680;48.106;11.708;2023-02-10T13:35:13;97328.47;;;5.77;54.81
1832;BME280;1680;48.106;11.708;2023-02-10T13:37:43;97331.88;;;5.95;52.92